Aspen-Gerbaz, Colorado
Current Conditions -  °F | °C
As of 3:53 AM on Saturday 25 Oct 2014 (Local Time) from KASE Reporting Station
Clear Clear  
Wind Chill: -2°   Ceiling: Unl
Heat Index:   Visibility: 10mi
Dew Point: -7°   Wind: 7mph
Humidity: 54%   Direction: 210°SSW
Pressure: 30.41"   Gusts: NA
Location:  39.1256°N, 106.797°W
Report Text: KASE 250953Z 21006KT 10SM CLR 02/M07 A3041 RMK AO2 SLP210 T00171067
Loading
Personal Weather Stations






























Interactive Weather Map
Tropical Storm Tracking
New forecast layout! Learn more

10-Day Weather Forecast

Advertisements
Track Severe Weather on mobile